Time;durP1;ratioP1;P1;durP2;ratioP2;P2;SDS_P1;SDS_P2;PMS_P1;PMS_P2;Temp;Humidity;BMP_temperature;BMP_pressure;BME280_temperature;BME280_humidity;BME280_pressure;Samples;Min_cycle;Max_cycle;Signal;HPM_P1;HPM_P2
2022/07/03 11:21:57;;;;;;;;;;;;;;;32.30;75.45;98513.53;4784587;29;19968;-73
2022/07/03 11:24:31;;;;;;;;;;;;;;;32.14;67.95;98518.16;4801962;29;19954;-73
2022/07/03 11:27:14;;;;;;;;;;;;;;;32.14;67.32;98512.34;4801858;29;20389;-73
2022/07/03 11:29:41;;;;;;;;;;;;;;;31.98;64.55;98515.41;4804689;29;19946;-73
2022/07/03 11:32:27;;;;;;;;;;;;;;;32.03;62.84;98509.59;4808100;29;19960;-73
2022/07/03 11:34:55;;;;;;;;;;;;;;;32.00;63.34;98504.88;4809506;29;19955;-73
2022/07/03 11:37:22;;;;;;;;;;;;;;;32.27;58.74;98508.81;4809241;29;19947;-72
2022/07/03 11:39:51;;;;;;;;;;;;;;;32.11;64.44;98498.97;4808928;29;19952;-77
2022/07/03 11:42:18;;;;;;;;;;;;;;;32.37;63.47;98495.56;4808409;29;19953;-73
2022/07/03 11:44:46;;;;;;;;;;;;;;;32.52;60.29;98495.19;4808489;29;19965;-73
2022/07/03 11:47:14;;;;;;;;;;;;;;;32.57;69.50;98492.22;4808990;29;19971;-73
2022/07/03 11:49:48;;;;;;;;;;;;;;;32.63;69.38;98490.03;4808392;29;19953;-72
2022/07/03 11:52:31;;;;;;;;;;;;;;;32.65;67.88;98495.28;4808673;29;20572;-73
2022/07/03 11:55:00;;;;;;;;;;;;;;;32.67;61.24;98495.53;4807993;29;20544;-72
2022/07/03 11:57:28;;;;;;;;;;;;;;;32.63;61.28;98495.84;4807707;29;19952;-74
2022/07/03 12:00:03;;;;;;;;;;;;;;;32.65;62.27;98495.28;4808371;29;19951;-73
2022/07/03 12:02:50;;;;;;;;;;;;;;;32.61;62.67;98492.69;4806666;29;19953;-73
2022/07/03 12:05:17;;;;;;;;;;;;;;;32.70;59.82;98495.22;4804094;29;19990;-72
2022/07/03 12:08:01;;;;;;;;;;;;;;;32.70;57.99;98489.44;4804705;29;19967;-73
2022/07/03 12:10:40;;;;;;;;;;;;;;;32.68;64.55;98488.41;4808437;29;19960;-73
2022/07/03 12:13:22;;;;;;;;;;;;;;;32.65;64.04;98495.28;4792130;29;19951;-73
2022/07/03 12:15:49;;;;;;;;;;;;;;;32.77;63.58;98482.25;4804956;29;19956;-72
2022/07/03 12:18:16;;;;;;;;;;;;;;;32.88;61.43;98479.22;4806080;29;19956;-73
2022/07/03 12:20:44;;;;;;;;;;;;;;;32.90;62.18;98483.13;4784298;29;20261;-73
2022/07/03 12:23:12;;;;;;;;;;;;;;;32.81;61.23;98476.94;4818879;29;19953;-73
2022/07/03 12:25:43;;;;;;;;;;;;;;;32.87;59.61;98484.22;4821192;29;20242;-74
2022/07/03 12:28:11;;;;;;;;;;;;;;;32.96;62.55;98480.94;4818955;29;20374;-73
2022/07/03 12:30:39;;;;;;;;;;;;;;;32.97;60.14;98481.72;4824809;29;20034;-73
2022/07/03 12:33:06;;;;;;;;;;;;;;;32.92;58.92;98476.78;4826069;29;19956;-72
2022/07/03 12:35:34;;;;;;;;;;;;;;;32.88;59.58;98477.09;4825872;29;19950;-72
2022/07/03 12:38:01;;;;;;;;;;;;;;;32.87;60.11;98466.03;4826723;29;20035;-72
2022/07/03 12:40:28;;;;;;;;;;;;;;;32.70;56.24;98462.56;4825901;29;19958;-72
2022/07/03 12:42:56;;;;;;;;;;;;;;;32.81;56.62;98460.34;4825959;29;20376;-73
2022/07/03 12:45:27;;;;;;;;;;;;;;;32.90;64.17;98464.97;4823366;29;19956;-72
2022/07/03 12:47:58;;;;;;;;;;;;;;;32.81;53.17;98466.13;4818048;29;19972;-72
2022/07/03 12:50:43;;;;;;;;;;;;;;;32.87;47.71;98466.84;4825995;29;19951;-72
2022/07/03 12:53:10;;;;;;;;;;;;;;;32.83;54.63;98469.28;4826021;29;19954;-73
2022/07/03 12:55:43;;;;;;;;;;;;;;;32.72;54.26;98460.69;4825780;29;19953;-73
2022/07/03 13:00:56;;;;;;;;;;;;;;;32.87;49.93;98445.75;4819132;29;20245;-72
2022/07/03 13:03:27;;;;;;;;;;;;;;;33.01;47.74;98450.34;4825512;29;20366;-72
2022/07/03 13:06:14;;;;;;;;;;;;;;;33.05;56.43;98439.25;4815337;29;19945;-73
2022/07/03 13:09:00;;;;;;;;;;;;;;;33.07;48.99;98439.47;4829146;29;19975;-72
2022/07/03 13:11:32;;;;;;;;;;;;;;;32.97;52.10;98432.47;4829358;29;19965;-73
2022/07/03 13:14:07;;;;;;;;;;;;;;;32.93;58.87;98432.78;4828106;29;19944;-73
2022/07/03 13:16:39;;;;;;;;;;;;;;;32.89;55.09;98425.75;4829142;29;19950;-73
2022/07/03 13:19:07;;;;;;;;;;;;;;;32.83;56.91;98439.50;4828782;29;19953;-72
2022/07/03 13:21:35;;;;;;;;;;;;;;;32.88;55.11;98430.75;4827020;29;20374;-73
2022/07/03 13:24:02;;;;;;;;;;;;;;;32.85;54.81;98428.16;4822083;29;19953;-72
2022/07/03 13:26:30;;;;;;;;;;;;;;;32.83;51.72;98439.50;4829337;29;19947;-73
2022/07/03 13:28:57;;;;;;;;;;;;;;;32.69;47.43;98441.53;4826036;29;20281;-73
2022/07/03 13:31:24;;;;;;;;;;;;;;;32.82;48.88;98440.81;4829167;29;20245;-73
2022/07/03 13:33:52;;;;;;;;;;;;;;;32.87;59.74;98428.38;4827790;29;19960;-72
2022/07/03 13:36:19;;;;;;;;;;;;;;;32.85;50.41;98433.94;4829118;29;19975;-72
2022/07/03 13:38:46;;;;;;;;;;;;;;;32.91;47.42;98440.47;4828548;29;19956;-72
2022/07/03 13:41:14;;;;;;;;;;;;;;;32.94;53.09;98439.38;4828764;29;19951;-72
2022/07/03 13:43:41;;;;;;;;;;;;;;;32.84;49.92;98426.59;4828586;29;19959;-72
2022/07/03 13:46:08;;;;;;;;;;;;;;;32.91;46.87;98425.97;4828566;29;19987;-73
2022/07/03 13:48:36;;;;;;;;;;;;;;;32.89;53.90;98414.16;4828207;29;20258;-73
2022/07/03 13:51:03;;;;;;;;;;;;;;;32.91;57.92;98418.09;4829069;29;19954;-73
2022/07/03 13:53:30;;;;;;;;;;;;;;;32.90;54.28;98415.72;4828712;29;19956;-73
2022/07/03 13:55:58;;;;;;;;;;;;;;;32.97;55.19;98417.97;4828706;29;19957;-72
2022/07/03 13:58:26;;;;;;;;;;;;;;;32.95;53.30;98409.06;4829357;29;20268;-73
2022/07/03 14:00:53;;;;;;;;;;;;;;;32.96;54.28;98408.50;4827825;29;19955;-72
2022/07/03 14:03:21;;;;;;;;;;;;;;;32.90;51.30;98404.91;4828702;29;20257;-72
2022/07/03 14:05:51;;;;;;;;;;;;;;;32.77;46.97;98407.72;4828541;29;19962;-72
2022/07/03 14:08:19;;;;;;;;;;;;;;;32.85;53.03;98408.66;4828717;29;19971;-73
2022/07/03 14:10:46;;;;;;;;;;;;;;;32.87;52.05;98408.09;4828527;29;19981;-73
2022/07/03 14:13:16;;;;;;;;;;;;;;;32.81;48.88;98408.22;4828617;29;19960;-73
2022/07/03 14:15:43;;;;;;;;;;;;;;;32.88;48.83;98403.91;4828189;29;19964;-72
2022/07/03 14:18:10;;;;;;;;;;;;;;;32.85;45.40;98402.88;4827883;29;19969;-72
2022/07/03 14:23:55;;;;;;;;;;;;;;;32.84;45.22;98400.53;5086386;24;20264;-71
2022/07/03 14:34:40;;;;;;;;;;;;;;;32.95;51.39;98395.38;4791809;30;19953;-69
2022/07/03 14:37:08;;;;;;;;;;;;;;;32.96;48.11;98384.56;4792111;29;19959;-69
2022/07/03 14:39:35;;;;;;;;;;;;;;;33.05;49.75;98389.97;4808485;29;19983;-70
2022/07/03 14:42:03;;;;;;;;;;;;;;;32.97;45.50;98392.69;4809802;29;19957;-70
2022/07/03 14:44:30;;;;;;;;;;;;;;;32.93;48.36;98389.34;4809678;29;19954;-70
2022/07/03 14:46:57;;;;;;;;;;;;;;;32.92;48.12;98389.88;4808076;29;19955;-70
2022/07/03 14:49:25;;;;;;;;;;;;;;;32.98;44.50;98387.69;4809332;29;19968;-70
2022/07/03 14:51:52;;;;;;;;;;;;;;;32.91;43.18;98382.53;4804642;29;19956;-70
2022/07/03 14:54:20;;;;;;;;;;;;;;;32.94;43.98;98388.00;4806446;29;19947;-70
2022/07/03 14:56:50;;;;;;;;;;;;;;;32.94;50.28;98372.75;4808903;29;19956;-71
2022/07/03 14:59:25;;;;;;;;;;;;;;;32.91;51.59;98371.72;4805212;29;19956;-70
2022/07/03 15:01:56;;;;;;;;;;;;;;;32.91;44.56;98368.84;4803248;29;19951;-70
2022/07/03 15:04:41;;;;;;;;;;;;;;;32.87;49.19;98379.94;4798301;29;19958;-70
2022/07/03 15:07:10;;;;;;;;;;;;;;;32.89;46.09;98376.50;4807619;29;20311;-70
2022/07/03 15:09:42;;;;;;;;;;;;;;;32.81;47.18;98372.66;4806360;29;20271;-70
2022/07/03 15:12:28;;;;;;;;;;;;;;;32.79;47.86;98364.50;4810055;29;19957;-70
2022/07/03 15:14:57;;;;;;;;;;;;;;;32.76;49.43;98367.72;4809069;29;20350;-70
2022/07/03 15:17:24;;;;;;;;;;;;;;;32.71;47.57;98362.78;4807321;29;19958;-70
2022/07/03 15:19:51;;;;;;;;;;;;;;;32.75;44.29;98366.94;4799756;29;19979;-70
2022/07/03 15:22:22;;;;;;;;;;;;;;;32.72;43.92;98370.91;4807865;29;20401;-70
2022/07/03 15:24:50;;;;;;;;;;;;;;;32.75;47.40;98374.84;4806464;29;19953;-70
2022/07/03 15:27:19;;;;;;;;;;;;;;;32.73;46.14;98369.59;4807461;29;20628;-70
2022/07/03 15:29:46;;;;;;;;;;;;;;;32.72;44.58;98359.34;4805882;29;19967;-70
2022/07/03 15:32:15;;;;;;;;;;;;;;;32.77;47.00;98360.63;4800467;29;19952;-70
2022/07/03 15:34:42;;;;;;;;;;;;;;;32.70;53.69;98362.00;4797923;29;19958;-70
2022/07/03 15:37:12;;;;;;;;;;;;;;;32.65;45.29;98359.97;4804043;29;19955;-70
2022/07/03 15:40:00;;;;;;;;;;;;;;;32.74;46.14;98353.81;4807225;29;19957;-70
2022/07/03 15:42:27;;;;;;;;;;;;;;;32.74;44.93;98345.13;4808508;29;19963;-70
2022/07/03 15:45:01;;;;;;;;;;;;;;;32.75;44.20;98348.78;4806234;29;19955;-70
2022/07/03 15:47:28;;;;;;;;;;;;;;;32.72;46.15;98352.78;4808395;29;20341;-70
2022/07/03 15:49:59;;;;;;;;;;;;;;;32.65;43.50;98348.38;4806481;29;20294;-70
2022/07/03 15:52:30;;;;;;;;;;;;;;;32.66;44.93;98349.97;4808487;29;19949;-70
2022/07/03 15:55:33;;;;;;;;;;;;;;;32.64;44.68;98346.03;4807826;29;19965;-71
2022/07/03 15:58:06;;;;;;;;;;;;;;;32.61;46.95;98350.81;4776200;29;19957;-71
2022/07/03 16:00:39;;;;;;;;;;;;;;;32.58;47.52;98349.00;4807455;29;19956;-71
2022/07/03 16:06:38;;;;;;;;;;;;;;;32.58;44.31;98346.09;4785239;30;19972;-71
2022/07/03 16:09:08;;;;;;;;;;;;;;;32.56;42.21;98345.88;4805396;29;20002;-71
2022/07/03 16:11:37;;;;;;;;;;;;;;;32.54;44.15;98336.97;4807104;29;20338;-71
2022/07/03 16:14:05;;;;;;;;;;;;;;;32.53;45.03;98338.28;4807669;29;19952;-71
2022/07/03 16:16:33;;;;;;;;;;;;;;;32.55;44.32;98335.63;4807357;29;19989;-70
2022/07/03 16:19:02;;;;;;;;;;;;;;;32.49;44.61;98337.78;4808514;29;20341;-71
2022/07/03 16:21:32;;;;;;;;;;;;;;;32.52;44.39;98335.94;4807710;29;19952;-71
2022/07/03 16:24:01;;;;;;;;;;;;;;;32.53;47.02;98337.50;4808436;29;20038;-71
2022/07/03 16:26:32;;;;;;;;;;;;;;;32.51;46.62;98334.38;4807560;29;19952;-71
2022/07/03 16:28:59;;;;;;;;;;;;;;;32.48;47.06;98339.09;4807732;29;20364;-70
2022/07/03 16:31:31;;;;;;;;;;;;;;;32.48;46.81;98328.31;4807677;29;19953;-70
2022/07/03 16:34:09;;;;;;;;;;;;;;;32.42;46.14;98329.72;4807404;29;20248;-70
2022/07/03 16:36:40;;;;;;;;;;;;;;;32.34;48.54;98335.34;4803739;29;19950;-71
2022/07/03 16:39:11;;;;;;;;;;;;;;;32.26;48.60;98334.38;4803212;29;19951;-71
2022/07/03 16:41:40;;;;;;;;;;;;;;;32.19;51.00;98335.00;4809177;29;20402;-71
2022/07/03 16:44:09;;;;;;;;;;;;;;;32.16;51.22;98333.19;4810265;29;19954;-70
2022/07/03 16:46:40;;;;;;;;;;;;;;;32.16;51.37;98332.41;4811167;29;19960;-71
2022/07/03 16:49:08;;;;;;;;;;;;;;;32.15;51.04;98328.75;4806193;29;19960;-71
2022/07/03 16:51:39;;;;;;;;;;;;;;;32.11;51.97;98328.25;4811095;29;20584;-71
2022/07/03 16:54:08;;;;;;;;;;;;;;;32.05;50.52;98333.34;4810973;29;19974;-70
2022/07/03 16:56:35;;;;;;;;;;;;;;;32.03;51.44;98330.22;4811126;29;19949;-70
2022/07/03 16:59:03;;;;;;;;;;;;;;;31.98;52.07;98330.25;4811152;29;19951;-71
2022/07/03 17:01:31;;;;;;;;;;;;;;;31.99;50.99;98337.59;4808949;29;19983;-71
2022/07/03 17:04:00;;;;;;;;;;;;;;;31.96;52.49;98330.00;4811277;29;19986;-71
2022/07/03 17:06:27;;;;;;;;;;;;;;;31.96;51.47;98335.78;4810293;29;20030;-71
2022/07/03 17:08:55;;;;;;;;;;;;;;;31.94;49.98;98336.31;4810650;29;19959;-71
2022/07/03 17:11:22;;;;;;;;;;;;;;;31.94;50.16;98330.53;4809907;29;19965;-70
2022/07/03 17:13:50;;;;;;;;;;;;;;;31.92;51.55;98326.59;4808465;29;19954;-70
2022/07/03 17:16:18;;;;;;;;;;;;;;;31.90;51.17;98326.38;4807402;29;19962;-70
2022/07/03 17:18:49;;;;;;;;;;;;;;;31.86;54.69;98331.69;4803108;29;19956;-70
2022/07/03 17:21:30;;;;;;;;;;;;;;;31.80;52.71;98329.63;4810850;29;19963;-70
2022/07/03 17:23:57;;;;;;;;;;;;;;;31.72;52.68;98331.56;4804120;29;19949;-71
2022/07/03 17:26:27;;;;;;;;;;;;;;;31.70;53.76;98334.22;4811288;29;19959;-71
2022/07/03 17:29:01;;;;;;;;;;;;;;;31.65;55.08;98325.56;4810766;29;19956;-70
2022/07/03 17:31:33;;;;;;;;;;;;;;;31.59;55.74;98322.75;4810558;29;19971;-70
2022/07/03 17:34:04;;;;;;;;;;;;;;;31.55;61.23;98328.03;4811363;29;19959;-70
2022/07/03 17:36:31;;;;;;;;;;;;;;;31.48;59.01;98327.84;4811359;29;19962;-70
2022/07/03 17:38:59;;;;;;;;;;;;;;;31.42;59.19;98324.22;4811027;29;19962;-70
2022/07/03 17:41:30;;;;;;;;;;;;;;;31.33;58.49;98333.19;4810070;29;19950;-70
2022/07/03 17:43:58;;;;;;;;;;;;;;;31.27;58.71;98329.59;4795412;29;19947;-70
2022/07/03 17:46:26;;;;;;;;;;;;;;;31.18;60.06;98331.50;4809413;29;19980;-70
2022/07/03 17:48:54;;;;;;;;;;;;;;;31.14;59.12;98327.31;4809417;29;19960;-70
2022/07/03 17:51:22;;;;;;;;;;;;;;;31.11;60.53;98325.50;4808926;29;20368;-71
2022/07/03 17:53:51;;;;;;;;;;;;;;;31.03;61.99;98327.44;4809239;29;19951;-70
2022/07/03 17:56:21;;;;;;;;;;;;;;;31.02;64.46;98320.06;4810441;29;19982;-70
2022/07/03 17:58:49;;;;;;;;;;;;;;;30.89;64.72;98319.88;4809855;29;19962;-70
2022/07/03 18:01:19;;;;;;;;;;;;;;;30.79;65.27;98327.31;4803693;29;19958;-70
2022/07/03 18:03:46;;;;;;;;;;;;;;;30.74;64.78;98326.00;4803163;29;20247;-70
2022/07/03 18:06:19;;;;;;;;;;;;;;;30.69;64.88;98314.50;4807646;29;20352;-70
2022/07/03 18:08:53;;;;;;;;;;;;;;;30.61;68.38;98322.16;4807542;29;19951;-70
2022/07/03 18:11:20;;;;;;;;;;;;;;;30.53;67.09;98314.06;4808815;29;19973;-70
2022/07/03 18:14:10;;;;;;;;;;;;;;;30.46;67.46;98322.50;4806912;29;19964;-70
2022/07/03 18:16:43;;;;;;;;;;;;;;;30.45;63.67;98327.47;4804062;29;19953;-70
2022/07/03 18:19:11;;;;;;;;;;;;;;;30.46;62.03;98326.19;4810078;29;19963;-70
2022/07/03 18:21:39;;;;;;;;;;;;;;;30.46;64.82;98325.38;4809945;29;20349;-70
2022/07/03 18:24:13;;;;;;;;;;;;;;;30.41;64.88;98324.09;4810103;29;19952;-70
2022/07/03 18:26:46;;;;;;;;;;;;;;;30.38;63.58;98327.25;4810458;29;19956;-70
2022/07/03 18:29:17;;;;;;;;;;;;;;;30.36;62.07;98319.13;4810692;29;19952;-70
2022/07/03 18:31:45;;;;;;;;;;;;;;;30.37;61.71;98328.59;4810005;29;19976;-70
2022/07/03 18:34:14;;;;;;;;;;;;;;;30.36;60.92;98327.78;4809978;29;19955;-70
2022/07/03 18:36:42;;;;;;;;;;;;;;;30.33;62.17;98328.03;4810043;29;19948;-70
2022/07/03 18:39:11;;;;;;;;;;;;;;;30.26;63.29;98326.50;4810219;29;19963;-70
2022/07/03 18:41:38;;;;;;;;;;;;;;;30.23;62.16;98326.75;4809742;29;19957;-70
2022/07/03 18:44:07;;;;;;;;;;;;;;;30.19;62.53;98329.94;4810032;29;20340;-70
2022/07/03 18:46:35;;;;;;;;;;;;;;;30.15;62.83;98322.88;4810196;29;19983;-70
2022/07/03 18:49:05;;;;;;;;;;;;;;;30.11;63.52;98331.81;4804222;29;20249;-70
2022/07/03 18:51:48;;;;;;;;;;;;;;;30.04;64.75;98332.34;4806897;29;19970;-70
2022/07/03 18:54:18;;;;;;;;;;;;;;;29.95;65.04;98329.78;4810262;29;20327;-70
2022/07/03 18:56:48;;;;;;;;;;;;;;;29.89;64.31;98323.22;4801175;29;19950;-70
2022/07/03 18:59:26;;;;;;;;;;;;;;;29.84;63.25;98338.44;4809725;29;20335;-70
2022/07/03 19:01:53;;;;;;;;;;;;;;;29.78;63.67;98334.78;4809403;29;19949;-70
2022/07/03 19:04:33;;;;;;;;;;;;;;;29.74;62.60;98345.75;4807098;29;19972;-70
2022/07/03 19:07:07;;;;;;;;;;;;;;;29.72;62.26;98342.63;4809503;29;20219;-70
2022/07/03 19:09:35;;;;;;;;;;;;;;;29.69;60.77;98349.44;4808815;29;19956;-70
2022/07/03 19:12:12;;;;;;;;;;;;;;;29.70;60.43;98357.56;4809389;29;20256;-70
2022/07/03 19:14:41;;;;;;;;;;;;;;;29.67;59.92;98355.75;4809280;29;20332;-70
2022/07/03 19:17:13;;;;;;;;;;;;;;;29.68;60.49;98368.06;4808545;29;19959;-70
2022/07/03 19:19:41;;;;;;;;;;;;;;;29.68;63.64;98373.81;4809543;29;19955;-70
2022/07/03 19:22:10;;;;;;;;;;;;;;;29.66;66.13;98373.56;4808435;29;19956;-71
2022/07/03 19:24:37;;;;;;;;;;;;;;;29.59;67.63;98377.00;4808710;29;20414;-70
2022/07/03 19:27:05;;;;;;;;;;;;;;;29.45;69.13;98381.69;4809049;29;19947;-70
2022/07/03 19:29:33;;;;;;;;;;;;;;;29.31;73.16;98376.97;4808891;29;19974;-70
2022/07/03 19:32:00;;;;;;;;;;;;;;;29.18;75.07;98383.22;4809348;29;19975;-70
2022/07/03 19:34:30;;;;;;;;;;;;;;;29.07;77.39;98385.31;4809099;29;19956;-70
2022/07/03 19:36:57;;;;;;;;;;;;;;;28.99;79.12;98387.91;4809195;29;19953;-70
2022/07/03 19:39:25;;;;;;;;;;;;;;;28.97;78.38;98389.75;4808747;29;19952;-70
2022/07/03 19:41:52;;;;;;;;;;;;;;;28.98;79.70;98394.19;4808919;29;19972;-70
2022/07/03 19:44:20;;;;;;;;;;;;;;;29.00;79.29;98403.09;4809675;29;19953;-70
2022/07/03 19:46:47;;;;;;;;;;;;;;;29.01;80.31;98410.41;4792695;29;19981;-70
2022/07/03 19:49:18;;;;;;;;;;;;;;;29.01;79.91;98405.44;4808563;29;19961;-70
2022/07/03 19:51:45;;;;;;;;;;;;;;;29.04;79.91;98403.63;4807721;29;19970;-70
2022/07/03 19:54:13;;;;;;;;;;;;;;;29.01;81.26;98396.03;4809439;29;19953;-70
2022/07/03 19:56:40;;;;;;;;;;;;;;;28.94;82.39;98402.28;4808752;29;19958;-70
2022/07/03 19:59:07;;;;;;;;;;;;;;;28.96;80.50;98391.84;4808735;29;19982;-70
2022/07/03 20:01:34;;;;;;;;;;;;;;;29.02;80.78;98397.59;4808365;29;19958;-70
2022/07/03 20:04:02;;;;;;;;;;;;;;;29.03;83.38;98396.28;4808390;29;19959;-70
2022/07/03 20:06:29;;;;;;;;;;;;;;;29.02;81.79;98395.53;4808855;29;19957;-70
2022/07/03 20:08:56;;;;;;;;;;;;;;;29.01;82.03;98393.94;4807314;29;19965;-70
2022/07/03 20:11:24;;;;;;;;;;;;;;;28.97;82.11;98393.41;4808309;29;19997;-70
2022/07/03 20:13:51;;;;;;;;;;;;;;;28.88;90.51;98385.00;4808136;29;19950;-70
2022/07/03 20:16:19;;;;;;;;;;;;;;;28.78;93.13;98392.34;4808526;29;19952;-70
2022/07/03 20:18:47;;;;;;;;;;;;;;;28.69;92.23;98383.13;4808470;29;19951;-70
2022/07/03 20:21:14;;;;;;;;;;;;;;;28.62;91.37;98379.44;4808132;29;19953;-70
2022/07/03 20:26:28;;;;;;;;;;;;;;;28.53;90.72;98376.00;4792548;29;19950;-70
2022/07/03 20:28:55;;;;;;;;;;;;;;;28.45;89.17;98387.22;4808926;29;19952;-70
2022/07/03 20:31:23;;;;;;;;;;;;;;;28.39;88.84;98395.00;4806988;29;19967;-70
2022/07/03 20:33:50;;;;;;;;;;;;;;;28.34;89.06;98397.88;4808144;29;19950;-70
2022/07/03 20:36:19;;;;;;;;;;;;;;;28.30;89.11;98394.44;4808678;29;19958;-70
2022/07/03 20:38:46;;;;;;;;;;;;;;;28.25;94.84;98396.00;4808071;29;19951;-70
2022/07/03 20:41:26;;;;;;;;;;;;;;;28.22;89.93;98402.00;4807713;29;19950;-70
2022/07/03 20:43:53;;;;;;;;;;;;;;;28.22;90.40;98404.88;4806987;29;19971;-70
2022/07/03 20:46:22;;;;;;;;;;;;;;;28.22;91.15;98410.63;4807629;29;20351;-70
2022/07/03 20:48:49;;;;;;;;;;;;;;;28.21;91.07;98412.72;4807575;29;19958;-70
2022/07/03 20:51:19;;;;;;;;;;;;;;;28.21;91.31;98414.81;4808160;29;19970;-70
2022/07/03 20:53:47;;;;;;;;;;;;;;;28.18;91.86;98410.06;4808471;29;19958;-70
2022/07/03 20:56:15;;;;;;;;;;;;;;;28.20;89.88;98414.00;4807671;29;19960;-70
2022/07/03 20:58:42;;;;;;;;;;;;;;;28.19;88.94;98411.66;4808585;29;19953;-70
2022/07/03 21:01:09;;;;;;;;;;;;;;;28.17;88.95;98415.03;4793867;29;19951;-70
2022/07/03 21:03:36;;;;;;;;;;;;;;;28.15;88.85;98422.59;4807429;29;19949;-70
2022/07/03 21:06:24;;;;;;;;;;;;;;;28.14;88.22;98418.97;4808117;29;19984;-70
2022/07/03 21:08:52;;;;;;;;;;;;;;;28.13;87.84;98423.13;4806415;29;19979;-70
2022/07/03 21:11:37;;;;;;;;;;;;;;;28.10;87.83;98432.78;4806738;29;20350;-70
2022/07/03 21:14:12;;;;;;;;;;;;;;;28.04;88.41;98426.22;4807740;29;19951;-70
2022/07/03 21:16:41;;;;;;;;;;;;;;;27.98;88.72;98443.38;4806727;29;20237;-70
2022/07/03 21:19:10;;;;;;;;;;;;;;;27.94;89.43;98444.94;4799758;29;19958;-70
2022/07/03 21:21:38;;;;;;;;;;;;;;;27.90;88.68;98433.66;4792157;29;19949;-70
2022/07/03 21:24:06;;;;;;;;;;;;;;;27.87;89.35;98428.97;4806688;29;19958;-70
2022/07/03 21:26:34;;;;;;;;;;;;;;;27.83;89.48;98436.22;4807545;29;19958;-69
2022/07/03 21:29:01;;;;;;;;;;;;;;;27.81;89.59;98433.88;4809254;29;19955;-70
